Rorichmoor — V2BV7 — position and weather

sailwx.info

Track history (hours):
 
Tides and Currents Weather Stations Pressure Air Temp Water Temp Dewpoint Dewpoint Depression Visibility Wind Speed Wind Dir Waves Ship Positions

Rorichmoor

Last reported at 2017-Oct-28 10:10 UTC. Time now 2017-Nov-17 19:56 UTC.
Position N 43°12' E 005°08'.
Warning: this ship's position is 20 days out of date.

Length 80 m; draft 4.4 m.

Type: Cargo ship. MMSI: 304938000.

Date/timePositionNaut miles runAvg speedWind from/ knotsBaromVisibWave heightAir tempDewpointWater temp
2017-Oct-28 10:10N 43°12' E 005°08'2 9.8
2017-Oct-28 10:00N 43°14' E 005°06'510.0
2017-Oct-28 09:30N 43°18' E 005°02'7 9.3
2017-Oct-28 08:48N 43°23' E 004°57'3 8.8
2017-Oct-28 08:29N 43°24' E 004°53'2 1.1
2017-Oct-28 07:06N 43°26' E 004°54'0 0.0
2017-Oct-28 06:54N 43°26' E 004°54'  
2017-Oct-25 09:34N 43°24' E 004°57'0 0.1
2017-Oct-25 09:25N 43°24' E 004°57'0 0.1
2017-Oct-25 08:58N 43°24' E 004°57'0 0.0
2017-Oct-25 08:28N 43°24' E 004°57'0 0.0
2017-Oct-25 07:52N 43°24' E 004°57'0 0.0
2017-Oct-25 07:28N 43°24' E 004°57'0 0.0
2017-Oct-25 06:58N 43°24' E 004°57'0 0.0
2017-Oct-25 06:13N 43°24' E 004°57'0 0.0
2017-Oct-25 05:52N 43°24' E 004°57'0 0.0
2017-Oct-25 05:10N 43°24' E 004°57'0 0.0
2017-Oct-25 04:58N 43°24' E 004°57'0 0.0
2017-Oct-25 04:28N 43°24' E 004°57'0 0.0
2017-Oct-25 03:46N 43°24' E 004°57'0 0.1
2017-Oct-25 03:28N 43°24' E 004°57'4 7.0
2017-Oct-25 02:58N 43°21' E 004°59'4 9.1
2017-Oct-25 02:30N 43°17' E 005°00'5 9.6
2017-Oct-25 02:00N 43°12' E 005°03'5 9.2
2017-Oct-25 01:27N 43°10' E 005°09'6 9.2
2017-Oct-25 00:47N 43°07' E 005°16'5 9.3
2017-Oct-25 00:14N 43°05' E 005°23'2 9.4
2017-Oct-25 00:00N 43°04' E 005°25'5 9.2
2017-Oct-24 23:30N 43°02' E 005°31'5 9.3
2017-Oct-24 23:00N 43°00' E 005°37'5 9.5
2017-Oct-24 22:30N 42°58' E 005°43'189 9.3
2017-Oct-24 02:07N 43°06' E 010°01'1 8.7
2017-Oct-24 02:00N 43°05' E 010°02'5 8.7
2017-Oct-24 01:27N 43°03' E 010°08'  
Track history (hours):
 
Tides and Currents Weather Stations Pressure Air Temp Water Temp Dewpoint Dewpoint Depression Visibility Wind Speed Wind Dir Waves Ship Positions

Rorichmoor

Last reported at 2017-Oct-28 10:10 UTC. Time now 2017-Nov-17 19:56 UTC.
Position N 43°12' E 005°08'.
Warning: this ship's position is 20 days out of date.

Length 80 m; draft 4.4 m.

Type: Cargo ship. MMSI: 304938000.

Date/timePositionNaut miles runAvg speedWind from/ knotsBaromVisibWave heightAir tempDewpointWater temp
2017-Oct-28 10:10N 43°12' E 005°08'2 9.8
2017-Oct-28 10:00N 43°14' E 005°06'510.0
2017-Oct-28 09:30N 43°18' E 005°02'7 9.3
2017-Oct-28 08:48N 43°23' E 004°57'3 8.8
2017-Oct-28 08:29N 43°24' E 004°53'2 1.1
2017-Oct-28 07:06N 43°26' E 004°54'0 0.0
2017-Oct-28 06:54N 43°26' E 004°54'  
2017-Oct-25 09:34N 43°24' E 004°57'0 0.1
2017-Oct-25 09:25N 43°24' E 004°57'0 0.1
2017-Oct-25 08:58N 43°24' E 004°57'0 0.0
2017-Oct-25 08:28N 43°24' E 004°57'0 0.0
2017-Oct-25 07:52N 43°24' E 004°57'0 0.0
2017-Oct-25 07:28N 43°24' E 004°57'0 0.0
2017-Oct-25 06:58N 43°24' E 004°57'0 0.0
2017-Oct-25 06:13N 43°24' E 004°57'0 0.0
2017-Oct-25 05:52N 43°24' E 004°57'0 0.0
2017-Oct-25 05:10N 43°24' E 004°57'0 0.0
2017-Oct-25 04:58N 43°24' E 004°57'0 0.0
2017-Oct-25 04:28N 43°24' E 004°57'0 0.0
2017-Oct-25 03:46N 43°24' E 004°57'0 0.1
2017-Oct-25 03:28N 43°24' E 004°57'4 7.0
2017-Oct-25 02:58N 43°21' E 004°59'4 9.1
2017-Oct-25 02:30N 43°17' E 005°00'5 9.6
2017-Oct-25 02:00N 43°12' E 005°03'5 9.2
2017-Oct-25 01:27N 43°10' E 005°09'6 9.2
2017-Oct-25 00:47N 43°07' E 005°16'5 9.3
2017-Oct-25 00:14N 43°05' E 005°23'2 9.4
2017-Oct-25 00:00N 43°04' E 005°25'5 9.2
2017-Oct-24 23:30N 43°02' E 005°31'5 9.3
2017-Oct-24 23:00N 43°00' E 005°37'5 9.5
2017-Oct-24 22:30N 42°58' E 005°43'189 9.3
2017-Oct-24 02:07N 43°06' E 010°01'1 8.7
2017-Oct-24 02:00N 43°05' E 010°02'5 8.7
2017-Oct-24 01:27N 43°03' E 010°08'  

Dump ship's entire track history